Terminal Aerodrome Forecast
Issued by NWS

Home | Current Version | Previous Version | Text Only | Print | Product List | Glossary On
Versions: 1 2 3 4 5 6 7 8 9 10 11 12 13 14 15 16
270
FTUS43 KMQT 312335
TAFCMX
TAF
KCMX 312335Z 0100/0124 11014G20KT P6SM VCSH OVC100
     FM010400 11009KT P6SM -SHRA OVC060 WS010/18030KT
     FM010900 13009KT P6SM -SHRA OVC015 WS010/18030KT
     FM011100 14008KT P6SM VCSH OVC020
     FM011400 15007KT P6SM BKN035
     FM011800 19009KT P6SM -SHRA SCT150
     FM012100 24009KT P6SM BKN050=

USA.gov is the U.S. government's official web portal to all federal, state and local government web resources and services.